createdAt,value
2018-05-21T00:01:49.959Z,13.20
2018-05-21T00:04:18.216Z,12.67
2018-05-21T00:06:45.736Z,11.97
2018-05-21T00:09:13.226Z,13.77
2018-05-21T00:11:40.724Z,12.00
2018-05-21T00:14:08.232Z,11.37
2018-05-21T00:16:35.798Z,13.30
2018-05-21T00:19:03.317Z,13.90
2018-05-21T00:21:30.830Z,13.00
2018-05-21T00:23:59.120Z,11.63
2018-05-21T00:26:27.382Z,15.30
2018-05-21T00:28:55.660Z,14.13
2018-05-21T00:31:23.941Z,12.70
2018-05-21T00:33:52.228Z,12.30
2018-05-21T00:36:19.724Z,11.57
2018-05-21T00:38:47.241Z,11.47
2018-05-21T00:41:14.733Z,11.00
2018-05-21T00:43:42.243Z,12.57
2018-05-21T00:46:10.504Z,11.23
2018-05-21T00:48:37.999Z,11.60
2018-05-21T00:51:05.499Z,9.97
2018-05-21T00:53:32.985Z,17.77
2018-05-21T00:56:01.262Z,13.10
2018-05-21T00:58:29.533Z,10.43
2018-05-21T01:00:57.051Z,11.60
2018-05-21T01:03:24.560Z,10.73
2018-05-21T01:05:52.870Z,10.00
2018-05-21T01:08:20.402Z,11.33
2018-05-21T01:10:48.654Z,11.77
2018-05-21T01:13:16.165Z,10.57
2018-05-21T01:15:43.691Z,11.60
2018-05-21T01:18:11.185Z,11.50
2018-05-21T01:20:38.675Z,11.40
2018-05-21T01:23:06.188Z,11.47
2018-05-21T01:25:33.687Z,10.67
2018-05-21T01:28:01.203Z,10.03
2018-05-21T01:30:28.725Z,10.03
2018-05-21T01:32:56.978Z,10.80
2018-05-21T01:35:24.473Z,11.13
2018-05-21T01:37:51.993Z,9.83
2018-05-21T01:40:19.512Z,10.87
2018-05-21T01:42:47.084Z,10.07
2018-05-21T01:45:15.499Z,11.10
2018-05-21T01:47:43.003Z,11.90
2018-05-21T01:50:10.581Z,11.03
2018-05-21T01:52:38.101Z,10.80
2018-05-21T01:55:06.650Z,11.23
2018-05-21T01:57:34.185Z,10.27
2018-05-21T02:00:01.699Z,11.40
2018-05-21T02:02:29.201Z,10.40
2018-05-21T02:04:56.717Z,10.63
2018-05-21T02:07:24.219Z,10.40
2018-05-21T02:09:51.791Z,11.07
2018-05-21T02:12:19.287Z,10.30
2018-05-21T02:14:46.807Z,18.43
2018-05-21T02:17:14.351Z,10.70
2018-05-21T02:19:41.847Z,11.87
2018-05-21T02:22:10.143Z,9.90
2018-05-21T02:24:37.636Z,10.87
2018-05-21T02:27:05.250Z,11.50
2018-05-21T02:29:33.600Z,11.17
2018-05-21T02:32:01.099Z,10.23
2018-05-21T02:34:28.675Z,10.00
2018-05-21T02:36:56.277Z,18.73
2018-05-21T02:39:23.704Z,11.17
2018-05-21T02:41:51.196Z,10.30
2018-05-21T02:44:18.824Z,11.17
2018-05-21T02:46:47.090Z,13.53
2018-05-21T02:49:14.687Z,10.47
2018-05-21T02:51:42.167Z,10.10
2018-05-21T02:54:10.422Z,10.77
2018-05-21T02:56:37.923Z,9.50
2018-05-21T02:59:05.491Z,9.30
2018-05-21T03:01:33.002Z,9.30
2018-05-21T03:04:01.268Z,10.60
2018-05-21T03:06:28.757Z,10.23
2018-05-21T03:08:56.251Z,10.77
2018-05-21T03:11:23.755Z,9.30
2018-05-21T03:13:52.174Z,11.10
2018-05-21T03:16:19.666Z,12.07
2018-05-21T03:18:47.163Z,10.10
2018-05-21T03:21:14.665Z,9.20
2018-05-21T03:23:42.167Z,8.30
2018-05-21T03:26:10.508Z,8.90
2018-05-21T03:28:38.058Z,9.60
2018-05-21T03:31:05.606Z,9.97
2018-05-21T03:33:33.107Z,12.23
2018-05-21T03:36:00.660Z,9.37
2018-05-21T03:38:28.152Z,8.80
2018-05-21T03:40:55.736Z,8.40
2018-05-21T03:43:23.223Z,10.07
2018-05-21T03:45:51.486Z,9.73
2018-05-21T03:48:18.978Z,8.63
2018-05-21T03:50:46.483Z,8.70
2018-05-21T03:53:14.012Z,9.33
2018-05-21T03:55:41.504Z,8.80
2018-05-21T03:58:20.885Z,8.40
2018-05-21T04:01:01.154Z,9.13
2018-05-21T04:03:41.359Z,9.53
2018-05-21T04:06:08.895Z,9.67
2018-05-21T04:08:36.434Z,9.10
2018-05-21T04:11:03.922Z,9.30
2018-05-21T04:13:31.405Z,10.70
2018-05-21T04:15:58.943Z,9.70
2018-05-21T04:18:26.469Z,10.37
2018-05-21T04:20:53.985Z,9.27
2018-05-21T04:23:22.294Z,9.60
2018-05-21T04:25:49.791Z,10.43
2018-05-21T04:28:17.309Z,8.67
2018-05-21T04:30:44.818Z,9.93
2018-05-21T04:33:12.310Z,9.33
2018-05-21T04:35:40.574Z,8.43
2018-05-21T04:38:08.076Z,8.80
2018-05-21T04:40:35.644Z,8.63
2018-05-21T04:43:03.158Z,9.10
2018-05-21T04:45:31.477Z,9.37
2018-05-21T04:47:58.997Z,8.13
2018-05-21T04:50:27.254Z,7.80
2018-05-21T04:52:54.733Z,8.83
2018-05-21T04:55:22.276Z,9.17
2018-05-21T04:57:49.777Z,8.03
2018-05-21T05:00:17.291Z,8.80
2018-05-21T05:02:44.772Z,9.30
2018-05-21T05:05:13.057Z,8.87
2018-05-21T05:07:40.571Z,8.47
2018-05-21T05:10:08.063Z,8.60
2018-05-21T05:12:35.587Z,8.10
2018-05-21T05:15:03.070Z,8.40
2018-05-21T05:17:31.344Z,8.27
2018-05-21T05:19:59.592Z,9.97
2018-05-21T05:22:27.086Z,8.20
2018-05-21T05:24:54.635Z,9.07
2018-05-21T05:27:22.148Z,9.03
2018-05-21T05:29:49.656Z,9.63
2018-05-21T05:32:17.145Z,8.67
2018-05-21T05:34:44.672Z,8.10
2018-05-21T05:37:12.940Z,8.30
2018-05-21T05:39:41.241Z,9.73
2018-05-21T05:42:08.881Z,8.60
2018-05-21T05:44:36.318Z,8.43
2018-05-21T05:47:03.808Z,9.40
2018-05-21T05:49:31.306Z,8.57
2018-05-21T05:51:58.823Z,9.30
2018-05-21T05:54:26.372Z,9.60
2018-05-21T05:56:54.641Z,9.90
2018-05-21T05:59:22.970Z,11.07
2018-05-21T06:01:50.466Z,10.40
2018-05-21T06:04:18.775Z,11.90
2018-05-21T06:06:46.270Z,12.23
2018-05-21T06:09:13.793Z,13.10
2018-05-21T06:11:41.296Z,12.33
2018-05-21T06:14:08.888Z,12.17
2018-05-21T06:16:37.149Z,14.10
2018-05-21T06:19:05.429Z,17.40
2018-05-21T06:21:33.735Z,16.93
2018-05-21T06:24:01.234Z,23.13
2018-05-21T06:26:28.763Z,16.47
2018-05-21T06:28:56.281Z,15.30
2018-05-21T06:31:24.537Z,16.07
2018-05-21T06:33:52.172Z,18.17
2018-05-21T06:36:19.669Z,15.77
2018-05-21T06:38:47.996Z,16.40
2018-05-21T06:41:15.497Z,16.40
2018-05-21T06:43:43.015Z,18.70
2018-05-21T06:46:10.612Z,16.40
2018-05-21T06:48:38.869Z,19.73
2018-05-21T06:51:06.371Z,17.07
2018-05-21T06:53:33.880Z,16.00
2018-05-21T06:56:01.387Z,18.27
2018-05-21T06:58:29.107Z,16.83
2018-05-21T07:00:56.733Z,16.60
2018-05-21T07:03:24.273Z,18.00
2018-05-21T07:05:51.808Z,18.13
2018-05-21T07:08:20.126Z,21.57
2018-05-21T07:10:47.706Z,27.00
2018-05-21T07:13:15.202Z,25.53
2018-05-21T07:15:43.456Z,27.67
2018-05-21T07:18:10.980Z,30.27
2018-05-21T07:20:38.473Z,29.50
2018-05-21T07:23:05.966Z,29.93
2018-05-21T07:25:33.457Z,28.93
2018-05-21T07:28:00.953Z,28.33
2018-05-21T07:30:29.210Z,28.17
2018-05-21T07:32:56.728Z,26.33
2018-05-21T07:35:24.229Z,29.37
2018-05-21T07:37:51.725Z,28.03
2018-05-21T07:40:19.990Z,27.10
2018-05-21T07:42:47.531Z,28.00
2018-05-21T07:45:15.038Z,28.17
2018-05-21T07:47:42.553Z,23.93
2018-05-21T07:50:10.094Z,25.07
2018-05-21T07:52:37.577Z,24.80
2018-05-21T07:55:05.847Z,22.93
2018-05-21T07:57:34.222Z,24.07
2018-05-21T08:00:01.743Z,23.97
2018-05-21T08:02:29.260Z,28.40
2018-05-21T08:04:57.540Z,22.77
2018-05-21T08:07:25.078Z,28.33
2018-05-21T08:09:53.644Z,26.83
2018-05-21T08:12:21.210Z,24.53
2018-05-21T08:14:48.785Z,28.90
2018-05-21T08:17:16.280Z,27.13
2018-05-21T08:19:43.809Z,23.13
2018-05-21T08:22:11.371Z,20.20
2018-05-21T08:24:38.846Z,20.70
2018-05-21T08:27:06.799Z,26.73
2018-05-21T08:29:34.344Z,21.10
2018-05-21T08:32:01.866Z,24.33
2018-05-21T08:34:29.374Z,26.70
2018-05-21T08:36:56.890Z,27.57
2018-05-21T08:39:24.417Z,23.17
2018-05-21T08:41:51.912Z,22.20
2018-05-21T08:44:19.463Z,22.70
2018-05-21T08:46:47.781Z,24.20
2018-05-21T08:49:15.306Z,24.33
2018-05-21T08:51:42.913Z,22.10
2018-05-21T08:54:10.410Z,22.97
2018-05-21T08:56:37.950Z,21.13
2018-05-21T08:59:06.228Z,21.57
2018-05-21T09:01:33.738Z,21.60
2018-05-21T09:04:01.318Z,21.30
2018-05-21T09:06:28.837Z,23.93
2018-05-21T09:08:56.332Z,22.70
2018-05-21T09:11:23.889Z,23.50
2018-05-21T09:13:51.401Z,23.80
2018-05-21T09:16:19.047Z,23.17
2018-05-21T09:18:46.437Z,23.77
2018-05-21T09:21:14.711Z,25.37
2018-05-21T09:23:42.976Z,23.97
2018-05-21T09:26:10.560Z,26.23
2018-05-21T09:28:37.994Z,24.20
2018-05-21T09:31:05.508Z,23.47
2018-05-21T09:33:33.028Z,24.93
2018-05-21T09:36:01.389Z,21.70
2018-05-21T09:38:29.680Z,20.80
2018-05-21T09:40:57.969Z,20.63
2018-05-21T09:43:25.520Z,19.20
2018-05-21T09:45:53.078Z,22.33
2018-05-21T09:48:20.611Z,22.30
2018-05-21T09:50:48.128Z,16.73
2018-05-21T09:53:15.723Z,19.00
2018-05-21T09:55:43.209Z,26.03
2018-05-21T09:58:10.718Z,22.77
2018-05-21T10:00:38.233Z,22.10
2018-05-21T10:03:05.743Z,19.47
2018-05-21T10:05:33.289Z,20.73
2018-05-21T10:08:01.037Z,19.13
2018-05-21T10:10:28.540Z,19.70
2018-05-21T10:12:56.054Z,17.20
2018-05-21T10:15:23.615Z,17.87
2018-05-21T10:17:51.132Z,21.83
2018-05-21T10:20:19.380Z,16.53
2018-05-21T10:22:46.899Z,14.27
2018-05-21T10:25:14.392Z,12.50
2018-05-21T10:27:41.914Z,12.43
2018-05-21T10:30:09.420Z,15.33
2018-05-21T10:32:37.700Z,11.77
2018-05-21T10:35:05.966Z,10.67
2018-05-21T10:37:33.483Z,11.57
2018-05-21T10:40:01.046Z,12.87
2018-05-21T10:42:28.621Z,12.03
2018-05-21T10:44:56.928Z,13.30
2018-05-21T10:47:25.228Z,13.37
2018-05-21T10:49:52.753Z,11.97
2018-05-21T10:52:20.254Z,11.73
2018-05-21T10:54:47.789Z,12.20
2018-05-21T10:57:16.076Z,11.50
2018-05-21T10:59:43.579Z,13.47
2018-05-21T11:02:11.116Z,12.50
2018-05-21T11:04:38.612Z,12.67
2018-05-21T11:07:06.899Z,12.53
2018-05-21T11:09:35.193Z,10.30
2018-05-21T11:12:02.701Z,11.60
2018-05-21T11:14:30.224Z,11.47
2018-05-21T11:16:57.735Z,11.97
2018-05-21T11:19:26.025Z,12.00
2018-05-21T11:21:54.311Z,13.00
2018-05-21T11:24:22.580Z,12.17
2018-05-21T11:26:50.909Z,12.80
2018-05-21T11:29:18.439Z,14.20
2018-05-21T11:31:45.937Z,13.10
2018-05-21T11:34:13.427Z,11.20
2018-05-21T11:36:41.700Z,11.47
2018-05-21T11:39:09.984Z,11.53
2018-05-21T11:41:38.269Z,11.00
2018-05-21T11:44:05.761Z,10.90
2018-05-21T11:46:33.278Z,10.60
2018-05-21T11:49:00.778Z,10.03
2018-05-21T11:51:28.282Z,10.27
2018-05-21T11:53:56.550Z,10.80
2018-05-21T11:56:24.065Z,10.87
2018-05-21T11:58:51.591Z,11.27
2018-05-21T12:01:19.086Z,10.63
2018-05-21T12:03:46.616Z,11.20
2018-05-21T12:06:14.111Z,10.40
2018-05-21T12:08:41.631Z,11.10
2018-05-21T12:11:09.163Z,11.93
2018-05-21T12:13:37.623Z,11.37
2018-05-21T12:16:04.981Z,11.47
2018-05-21T12:18:32.519Z,10.93
2018-05-21T12:21:00.012Z,10.53
2018-05-21T12:23:28.277Z,12.00
2018-05-21T12:25:55.779Z,11.00
2018-05-21T12:28:23.306Z,11.47
2018-05-21T12:30:51.567Z,10.83
2018-05-21T12:33:19.099Z,10.83
2018-05-21T12:35:46.607Z,11.07
2018-05-21T12:38:14.923Z,10.70
2018-05-21T12:40:42.387Z,11.23
2018-05-21T12:43:09.887Z,11.00
2018-05-21T12:45:38.180Z,12.10
2018-05-21T12:48:05.687Z,15.60
2018-05-21T12:50:33.192Z,12.87
2018-05-21T12:53:00.685Z,11.23
2018-05-21T12:55:28.176Z,11.20
2018-05-21T12:57:55.683Z,11.73
2018-05-21T13:00:23.199Z,11.40
2018-05-21T13:02:51.597Z,12.70
2018-05-21T13:05:19.154Z,12.30
2018-05-21T13:07:47.396Z,11.67
2018-05-21T13:10:14.895Z,11.83
2018-05-21T13:12:42.469Z,12.93
2018-05-21T13:15:09.984Z,11.53
2018-05-21T13:17:38.244Z,11.60
2018-05-21T13:20:05.751Z,13.10
2018-05-21T13:22:33.278Z,12.23
2018-05-21T13:25:01.571Z,12.03
2018-05-21T13:27:29.098Z,13.57
2018-05-21T13:29:56.614Z,14.73
2018-05-21T13:32:24.101Z,13.97
2018-05-21T13:34:51.617Z,13.57
2018-05-21T13:37:19.128Z,13.43
2018-05-21T13:39:46.710Z,12.60
2018-05-21T13:42:14.972Z,13.73
2018-05-21T13:44:42.548Z,14.37
2018-05-21T13:47:10.802Z,11.40
2018-05-21T13:49:39.075Z,8.83
2018-05-21T13:52:06.612Z,8.77
2018-05-21T13:54:34.126Z,13.30
2018-05-21T13:57:01.639Z,7.90
2018-05-21T13:59:29.901Z,7.10
2018-05-21T14:01:57.410Z,7.17
2018-05-21T14:04:24.913Z,5.93
2018-05-21T14:06:52.407Z,6.33
2018-05-21T14:09:20.694Z,6.17
2018-05-21T14:11:48.956Z,5.43
2018-05-21T14:14:17.253Z,6.27
2018-05-21T14:16:44.790Z,6.73
2018-05-21T14:19:12.270Z,5.60
2018-05-21T14:21:39.831Z,6.80
2018-05-21T14:24:07.302Z,6.53
2018-05-21T14:26:34.810Z,6.97
2018-05-21T14:29:03.110Z,6.17
2018-05-21T14:31:31.382Z,6.60
2018-05-21T14:33:59.661Z,6.97
2018-05-21T14:36:28.009Z,7.07
2018-05-21T14:38:55.574Z,7.47
2018-05-21T14:41:23.081Z,7.10
2018-05-21T14:43:50.562Z,7.17
2018-05-21T14:46:18.110Z,8.03
2018-05-21T14:48:45.580Z,8.33
2018-05-21T14:51:13.087Z,7.97
2018-05-21T14:53:41.345Z,7.47
2018-05-21T14:56:08.859Z,6.60
2018-05-21T14:58:36.341Z,6.90
2018-05-21T15:01:03.863Z,7.40
2018-05-21T15:03:31.368Z,6.50
2018-05-21T15:05:58.868Z,7.00
2018-05-21T15:08:26.389Z,7.20
2018-05-21T15:10:53.941Z,6.37
2018-05-21T15:13:21.459Z,6.40
2018-05-21T15:15:48.965Z,6.50
2018-05-21T15:18:17.231Z,6.23
2018-05-21T15:20:44.871Z,6.07
2018-05-21T15:23:12.373Z,6.10
2018-05-21T15:25:39.890Z,4.97
2018-05-21T15:28:07.392Z,7.53
2018-05-21T15:30:35.665Z,6.07
2018-05-21T15:33:03.188Z,6.77
2018-05-21T15:35:30.674Z,9.33
2018-05-21T15:37:58.936Z,7.40
2018-05-21T15:40:26.435Z,6.40
2018-05-21T15:42:53.932Z,7.13
2018-05-21T15:45:21.466Z,11.77
2018-05-21T15:47:48.970Z,5.70
2018-05-21T15:50:17.305Z,5.97
2018-05-21T15:52:44.842Z,5.60
2018-05-21T15:55:12.346Z,5.90
2018-05-21T15:57:39.935Z,5.13
2018-05-21T16:00:07.360Z,5.23
2018-05-21T16:02:34.884Z,6.00
2018-05-21T16:05:02.385Z,6.50
2018-05-21T16:07:30.656Z,9.50
2018-05-21T16:09:58.131Z,5.47
2018-05-21T16:12:26.401Z,4.70
2018-05-21T16:14:54.665Z,7.60
2018-05-21T16:17:22.175Z,5.60
2018-05-21T16:19:49.670Z,7.60
2018-05-21T16:22:17.177Z,9.73
2018-05-21T16:24:44.679Z,6.37
2018-05-21T16:27:12.242Z,5.40
2018-05-21T16:29:39.834Z,8.50
2018-05-21T16:32:08.113Z,6.43
2018-05-21T16:34:36.390Z,13.73
2018-05-21T16:37:04.657Z,6.70
2018-05-21T16:42:07.566Z,6.00
2018-05-21T16:44:35.809Z,6.57
2018-05-21T16:47:03.308Z,7.93
2018-05-21T16:49:30.819Z,5.97
2018-05-21T16:51:58.328Z,12.43
2018-05-21T16:54:25.816Z,6.40
2018-05-21T16:56:53.320Z,11.13
2018-05-21T16:59:21.582Z,9.83
2018-05-21T17:01:49.071Z,6.00
2018-05-21T17:04:16.603Z,11.57
2018-05-21T17:06:44.870Z,15.13
2018-05-21T17:09:12.354Z,6.27
2018-05-21T17:11:40.643Z,10.17
2018-05-21T17:14:08.210Z,8.43
2018-05-21T17:16:35.723Z,7.50
2018-05-21T17:19:03.208Z,6.03
2018-05-21T17:21:30.731Z,12.13
2018-05-21T17:23:58.217Z,7.23
2018-05-21T17:26:25.739Z,6.37
2018-05-21T17:28:53.258Z,8.53
2018-05-21T17:31:20.767Z,8.53
2018-05-21T17:33:48.286Z,9.13
2018-05-21T17:36:15.778Z,23.17
2018-05-21T17:38:43.282Z,8.17
2018-05-21T17:41:10.776Z,8.33
2018-05-21T17:43:38.320Z,7.93
2018-05-21T17:46:05.836Z,7.70
2018-05-21T17:48:33.327Z,9.90
2018-05-21T17:51:00.831Z,8.10
2018-05-21T17:53:29.141Z,8.17
2018-05-21T17:55:56.641Z,11.10
2018-05-21T17:58:24.136Z,11.60
2018-05-21T18:00:52.405Z,8.40
2018-05-21T18:03:20.767Z,11.00
2018-05-21T18:05:48.353Z,10.97
2018-05-21T18:08:16.630Z,14.00
2018-05-21T18:10:44.921Z,10.57
2018-05-21T18:13:12.468Z,11.30
2018-05-21T18:15:39.976Z,7.73
2018-05-21T18:18:07.485Z,8.80
2018-05-21T18:20:34.997Z,7.90
2018-05-21T18:23:02.531Z,14.73
2018-05-21T18:25:30.064Z,11.43
2018-05-21T18:27:57.564Z,8.60
2018-05-21T18:30:25.091Z,8.10
2018-05-21T18:32:52.587Z,8.03
2018-05-21T18:35:20.091Z,8.73
2018-05-21T18:37:47.607Z,7.53
2018-05-21T18:40:15.117Z,10.37
2018-05-21T18:42:42.730Z,8.27
2018-05-21T18:45:10.934Z,7.43
2018-05-21T18:47:38.499Z,16.20
2018-05-21T18:50:06.780Z,13.30
2018-05-21T18:52:34.309Z,7.63
2018-05-21T18:55:02.613Z,8.27
2018-05-21T18:57:30.140Z,10.10
2018-05-21T18:59:58.402Z,10.57
2018-05-21T19:02:25.912Z,10.57
2018-05-21T19:04:53.533Z,8.30
2018-05-21T19:07:21.033Z,9.00
2018-05-21T19:09:48.601Z,13.20
2018-05-21T19:12:16.150Z,8.00
2018-05-21T19:14:43.664Z,9.03
2018-05-21T19:17:11.155Z,9.80
2018-05-21T19:19:38.658Z,8.50
2018-05-21T19:22:06.134Z,7.63
2018-05-21T19:24:33.653Z,9.13
2018-05-21T19:27:01.181Z,8.77
2018-05-21T19:29:28.685Z,9.63
2018-05-21T19:31:56.185Z,9.50
2018-05-21T19:34:24.443Z,9.30
2018-05-21T19:36:51.957Z,10.30
2018-05-21T19:39:19.504Z,10.13
2018-05-21T19:41:47.041Z,16.90
2018-05-21T19:44:14.522Z,10.07
2018-05-21T19:46:42.041Z,10.13
2018-05-21T19:49:10.321Z,8.90
2018-05-21T19:51:38.633Z,10.20
2018-05-21T19:54:06.173Z,8.97
2018-05-21T19:56:33.786Z,9.87
2018-05-21T19:59:01.280Z,9.53
2018-05-21T20:01:28.814Z,9.20
2018-05-21T20:03:56.319Z,8.67
2018-05-21T20:06:23.829Z,8.50
2018-05-21T20:08:51.341Z,10.70
2018-05-21T20:11:18.828Z,8.43
2018-05-21T20:13:46.396Z,9.30
2018-05-21T20:16:14.673Z,16.13
2018-05-21T20:18:42.180Z,8.90
2018-05-21T20:21:10.491Z,9.23
2018-05-21T20:23:37.973Z,23.23
2018-05-21T20:26:05.586Z,9.37
2018-05-21T20:28:33.097Z,10.90
2018-05-21T20:31:01.369Z,9.23
2018-05-21T20:33:29.634Z,9.87
2018-05-21T20:35:57.149Z,11.67
2018-05-21T20:38:24.721Z,9.17
2018-05-21T20:40:52.310Z,8.90
2018-05-21T20:43:19.815Z,9.57
2018-05-21T20:45:47.328Z,12.60
2018-05-21T20:48:14.909Z,21.27
2018-05-21T20:50:43.170Z,11.57
2018-05-21T20:53:11.430Z,8.70
2018-05-21T20:55:38.977Z,8.43
2018-05-21T20:58:06.490Z,9.33
2018-05-21T21:00:34.011Z,10.07
2018-05-21T21:03:01.621Z,9.40
2018-05-21T21:05:29.107Z,12.57
2018-05-21T21:07:56.623Z,15.73
2018-05-21T21:10:24.110Z,9.77
2018-05-21T21:12:51.683Z,9.77
2018-05-21T21:15:19.211Z,9.17
2018-05-21T21:17:46.708Z,9.30
2018-05-21T21:20:14.206Z,10.60
2018-05-21T21:22:41.727Z,8.53
2018-05-21T21:25:09.241Z,9.50
2018-05-21T21:27:36.747Z,10.40
2018-05-21T21:30:04.243Z,11.83
2018-05-21T21:32:31.840Z,8.87
2018-05-21T21:34:59.296Z,8.70
2018-05-21T21:37:26.815Z,11.00
2018-05-21T21:39:54.301Z,8.70
2018-05-21T21:42:21.779Z,9.37
2018-05-21T21:44:49.297Z,14.03
2018-05-21T21:47:16.790Z,9.53
2018-05-21T21:49:44.302Z,9.80
2018-05-21T21:52:11.789Z,8.37
2018-05-21T21:54:39.393Z,13.80
2018-05-21T21:57:07.683Z,10.93
2018-05-21T21:59:35.967Z,10.97
2018-05-21T22:02:03.494Z,9.60
2018-05-21T22:04:31.791Z,10.30
2018-05-21T22:07:00.194Z,8.83
2018-05-21T22:09:27.702Z,9.23
2018-05-21T22:11:55.210Z,9.23
2018-05-21T22:14:22.937Z,10.37
2018-05-21T22:16:51.214Z,10.43
2018-05-21T22:19:19.547Z,10.90
2018-05-21T22:21:47.029Z,9.17
2018-05-21T22:24:14.570Z,10.10
2018-05-21T22:26:42.069Z,9.17
2018-05-21T22:29:10.337Z,9.70
2018-05-21T22:31:38.625Z,9.20
2018-05-21T22:34:06.888Z,8.57
2018-05-21T22:36:35.183Z,9.73
2018-05-21T22:39:02.680Z,8.40
2018-05-21T22:41:30.181Z,9.23
2018-05-21T22:43:58.478Z,9.20
2018-05-21T22:46:25.995Z,11.23
2018-05-21T22:48:53.590Z,10.40
2018-05-21T22:51:21.151Z,10.73
2018-05-21T22:53:48.691Z,9.27
2018-05-21T22:56:16.988Z,8.80
2018-05-21T22:58:44.507Z,9.77
2018-05-21T23:01:12.008Z,9.87
2018-05-21T23:03:39.518Z,9.63
2018-05-21T23:06:07.052Z,16.03
2018-05-21T23:08:34.560Z,8.87
2018-05-21T23:11:02.827Z,8.73
2018-05-21T23:13:31.142Z,10.23
2018-05-21T23:15:58.662Z,8.90
2018-05-21T23:18:26.958Z,9.43
2018-05-21T23:20:54.434Z,9.00
2018-05-21T23:23:21.951Z,8.70
2018-05-21T23:25:50.265Z,8.73
2018-05-21T23:28:17.764Z,8.10
2018-05-21T23:30:45.320Z,9.03
2018-05-21T23:33:12.824Z,8.00
2018-05-21T23:35:40.335Z,8.03
2018-05-21T23:38:07.818Z,8.43
2018-05-21T23:40:35.356Z,9.60
2018-05-21T23:43:02.862Z,8.40
2018-05-21T23:45:30.366Z,8.27
2018-05-21T23:47:57.885Z,9.57
2018-05-21T23:50:25.412Z,9.00
2018-05-21T23:52:53.695Z,11.60
2018-05-21T23:55:21.977Z,17.27
2018-05-21T23:57:49.515Z,10.57
